^^
Datos históricos de la estación: Murcia-Puente Tocinos
Diario Informe para Septiembre 4, 2021 Unidades:  Métrico    Ingés   Ambas
Diario Semanal Mensual Anual
  Máxima: Mínima: Promedio:
Temperatura: 14.2 °C 0.6 °C 7.6 °C
Punto de rocio: -0.4 °C -6.2 °C -3.2 °C
Humedad: 62% 31% 47%
Velocidad viento: 13km/h 0km/h 5.7km/h
Racha viento: 25.9km/h - -
Viento- - SSO
Presión: 1014.2 hPa 1008.9 hPa -
Precipitación: 0.0 mm    
 
 
Tabla de datos para Septiembre 4, 2021
Hora Temperatura Punto de rocio Presión Viento Velocidad viento Racha viento Humedad Intensidad lluvia(por hora) Nubes
00:04 4.8 °C -4.2 °C 1014.2 hPa SSE 4.6 km/h 7.4 km/h 52% 0.0 mm
00:09 4.8 °C -4.2 °C 1014.2 hPa Sur 4.7 km/h 10 km/h 52% 0.0 mm
00:14 4.8 °C -4.2 °C 1014.2 hPa SSE 4.6 km/h 11.9 km/h 52% 0.0 mm
00:19 4.8 °C -4.3 °C 1014.2 hPa SSE 6.5 km/h 11.9 km/h 52% 0.0 mm
00:24 4.7 °C -4.3 °C 1014.2 hPa Sur 7.6 km/h 11.3 km/h 52% 0.0 mm
00:29 4.8 °C -4.4 °C 1014.1 hPa Sur 6.9 km/h 9.7 km/h 51.5% 0.0 mm
00:34 4.9 °C -4.4 °C 1014.1 hPa Sur 6.5 km/h 11.1 km/h 50.8% 0.0 mm
00:36 5 °C -4.6 °C 1014.1 hPa SSE 6.5 km/h 11.3 km/h 50% 0.0 mm
00:44 5.2 °C -4.9 °C 1014.0 hPa SO 6.5 km/h 9.7 km/h 48.3% 0.0 mm
00:49 5.2 °C -4.9 °C 1014.0 hPa SO 6.5 km/h 9.7 km/h 48% 0.0 mm
00:54 5.2 °C -5 °C 1014.0 hPa SO 6.5 km/h 10 km/h 48% 0.0 mm
00:59 5 °C -5 °C 1014.0 hPa Oeste 6.1 km/h 9.7 km/h 48.4% 0.0 mm
01:04 4.7 °C -5 °C 1014.0 hPa Este 5.8 km/h 8 km/h 49.4% 0.0 mm
01:09 4.6 °C -4.7 °C 1014.0 hPa ESE 4.6 km/h 7.4 km/h 51% 0.0 mm
01:14 4.3 °C -4.6 °C 1013.9 hPa SE 3.9 km/h 11.1 km/h 52.3% 0.0 mm
01:19 4 °C -4.7 °C 1013.9 hPa SSE 5.4 km/h 11.1 km/h 53.3% 0.0 mm
01:24 3.8 °C -4.7 °C 1013.9 hPa SSE 6.5 km/h 11.3 km/h 54% 0.0 mm
01:29 3.7 °C -4.7 °C 1013.7 hPa Sur 6.5 km/h 9.7 km/h 54% 0.0 mm
01:34 3.8 °C -4.7 °C 1013.7 hPa SSE 6.5 km/h 10.3 km/h 54% 0.0 mm
01:39 3.8 °C -4.7 °C 1013.7 hPa Sur 5.6 km/h 11.1 km/h 54% 0.0 mm
01:44 3.8 °C -4.7 °C 1013.5 hPa SO 5 km/h 11.3 km/h 54% 0.0 mm
01:49 3.9 °C -4.6 °C 1013.5 hPa SO 5 km/h 9.7 km/h 54% 0.0 mm
01:54 3.9 °C -4.6 °C 1013.5 hPa SSO 5 km/h 9.7 km/h 54% 0.0 mm
01:59 3.9 °C -4.7 °C 1013.5 hPa SO 5.5 km/h 10 km/h 53.6% 0.0 mm
02:04 4 °C -4.8 °C 1013.5 hPa SO 5.8 km/h 9.7 km/h 53% 0.0 mm
02:09 4.1 °C -4.9 °C 1013.5 hPa SSO 5.8 km/h 9.7 km/h 52.1% 0.0 mm
02:14 4.1 °C -4.9 °C 1013.5 hPa SO 5.8 km/h 9.5 km/h 52% 0.0 mm
02:19 4.1 °C -4.9 °C 1013.5 hPa SSO 5.3 km/h 9.7 km/h 52% 0.0 mm
02:24 4.1 °C -5.1 °C 1013.5 hPa Sur 5 km/h 9.7 km/h 51.1% 0.0 mm
02:29 4.1 °C -5.1 °C 1013.4 hPa SO 4.8 km/h 8 km/h 51.3% 0.0 mm
02:34 4.1 °C -5 °C 1013.4 hPa SSO 4.7 km/h 8 km/h 51.6% 0.0 mm
02:39 4 °C -5 °C 1013.4 hPa SSE 4.1 km/h 8 km/h 51.9% 0.0 mm
02:44 3.9 °C -5.1 °C 1013.3 hPa SE 3.9 km/h 11.1 km/h 52% 0.0 mm
02:49 3.6 °C -5.1 °C 1013.3 hPa SSO 4.5 km/h 11.3 km/h 53.1% 0.0 mm
02:54 3.4 °C -5 °C 1013.3 hPa OSO 5 km/h 7.4 km/h 54.1% 0.0 mm
02:59 3.3 °C -4.9 °C 1013.3 hPa SSO 4.3 km/h 9.5 km/h 55% 0.0 mm
03:04 3.2 °C -5 °C 1013.3 hPa SSE 3.9 km/h 9.7 km/h 55% 0.0 mm
03:09 3.2 °C -5.2 °C 1013.3 hPa SSE 5.5 km/h 11.1 km/h 54.5% 0.0 mm
03:14 3.1 °C -5.3 °C 1013.3 hPa Sur 6.5 km/h 11.3 km/h 54% 0.0 mm
03:19 3.1 °C -5.3 °C 1013.3 hPa SSO 6.5 km/h 9.7 km/h 54% 0.0 mm
03:24 3.2 °C -5.5 °C 1013.3 hPa SSO 6.5 km/h 8.4 km/h 53.1% 0.0 mm
03:29 3.2 °C -5.5 °C 1013.2 hPa Sur 6 km/h 10.3 km/h 53% 0.0 mm
03:34 3.3 °C -5.4 °C 1013.2 hPa Sur 5.8 km/h 11.3 km/h 52.8% 0.0 mm
03:39 3.4 °C -5.6 °C 1013.3 hPa SSO 6.5 km/h 13 km/h 51.9% 0.0 mm
03:44 3.5 °C -5.7 °C 1013.3 hPa SSO 6.9 km/h 12.9 km/h 51% 0.0 mm
03:49 3.6 °C -5.8 °C 1013.3 hPa SO 6.9 km/h 9.7 km/h 50.5% 0.0 mm
03:54 3.6 °C -5.9 °C 1013.3 hPa OSO 6.9 km/h 12.2 km/h 50% 0.0 mm
03:59 3.4 °C -6 °C 1013.3 hPa OSO 6.9 km/h 13 km/h 50% 0.0 mm
04:04 3.3 °C -6 °C 1013.3 hPa Oeste 6.9 km/h 10 km/h 50.9% 0.0 mm
04:09 3.1 °C -6.1 °C 1013.3 hPa SO 6.2 km/h 7.4 km/h 51% 0.0 mm
04:14 2.9 °C -6.1 °C 1013.2 hPa SO 5.8 km/h 11.9 km/h 51.8% 0.0 mm
04:19 2.8 °C -6.1 °C 1013.2 hPa SO 5.8 km/h 11.9 km/h 52% 0.0 mm
04:24 2.8 °C -5.8 °C 1013.2 hPa SSO 5.8 km/h 11.3 km/h 53% 0.0 mm
04:29 2.9 °C -5.8 °C 1013.2 hPa Sur 6.2 km/h 11.1 km/h 52.9% 0.0 mm
04:34 3.1 °C -5.8 °C 1013.2 hPa Sur 6.5 km/h 11.3 km/h 52% 0.0 mm
04:39 3.1 °C -5.8 °C 1013.2 hPa SSO 6.5 km/h 8.4 km/h 52.4% 0.0 mm
04:44 3 °C -5.7 °C 1013.0 hPa Sur 6.5 km/h 9.5 km/h 53% 0.0 mm
04:49 3 °C -5.8 °C 1013.0 hPa Sur 6.5 km/h 9.7 km/h 52.2% 0.0 mm
04:54 3 °C -5.9 °C 1013.0 hPa Sur 6.5 km/h 10 km/h 52% 0.0 mm
04:59 3.1 °C -5.8 °C 1012.9 hPa Sur 6.8 km/h 9.7 km/h 52% 0.0 mm
05:04 3.2 °C -5.8 °C 1012.9 hPa Sur 6.9 km/h 8 km/h 52% 0.0 mm
05:09 3.1 °C -5.8 °C 1012.9 hPa SE 5.7 km/h 8 km/h 52% 0.0 mm
05:14 2.9 °C -5.8 °C 1012.8 hPa SE 5 km/h 8 km/h 52.9% 0.0 mm
05:19 2.8 °C -5.8 °C 1012.8 hPa SE 3.9 km/h 5.8 km/h 53.3% 0.0 mm
05:21 2.7 °C -5.7 °C 1012.8 hPa SSO 3.2 km/h 7.4 km/h 54% 0.0 mm
05:29 2.7 °C -5.7 °C 1012.7 hPa SSE 4.1 km/h 8 km/h 54% 0.0 mm
05:34 2.5 °C -5.8 °C 1012.7 hPa SE 4.7 km/h 9.3 km/h 54.4% 0.0 mm
05:39 2.2 °C -5.8 °C 1012.8 hPa SSE 4.9 km/h 9.7 km/h 55.4% 0.0 mm
05:44 2.1 °C -5.8 °C 1012.8 hPa Sur 5 km/h 9.7 km/h 56% 0.0 mm
05:49 2.2 °C -5.9 °C 1012.8 hPa SSE 5.5 km/h 9.7 km/h 55.1% 0.0 mm
05:54 2.1 °C -6 °C 1012.8 hPa SE 5.8 km/h 9.3 km/h 55% 0.0 mm
05:59 1.7 °C -6 °C 1012.7 hPa SSE 5.8 km/h 9.7 km/h 56.5% 0.0 mm
06:04 1.6 °C -5.8 °C 1012.7 hPa SSE 5.8 km/h 9.7 km/h 58% 0.0 mm
06:09 1.6 °C -5.8 °C 1012.7 hPa SSE 5.8 km/h 9.7 km/h 58% 0.0 mm
06:14 1.7 °C -5.9 °C 1012.6 hPa SSO 5.8 km/h 8 km/h 57.1% 0.0 mm
06:19 1.7 °C -5.9 °C 1012.6 hPa SSO 4 km/h 6.4 km/h 57% 0.0 mm
06:24 1.8 °C -5.8 °C 1012.6 hPa SSO 2.9 km/h 7.4 km/h 57% 0.0 mm
06:29 2.1 °C -5.8 °C 1012.5 hPa SSE 3.1 km/h 8 km/h 56% 0.0 mm
06:34 2.3 °C -5.8 °C 1012.5 hPa SE 3.2 km/h 8 km/h 55.2% 0.0 mm
06:39 2.3 °C -5.9 °C 1012.5 hPa SE 4.3 km/h 8.4 km/h 55% 0.0 mm
06:44 2.2 °C -5.9 °C 1012.5 hPa SE 5 km/h 8.4 km/h 55.5% 0.0 mm
06:49 1.9 °C -5.8 °C 1012.5 hPa SE 5 km/h 8 km/h 56.6% 0.0 mm
06:54 1.7 °C -5.9 °C 1012.5 hPa ESE 5 km/h 10 km/h 57.3% 0.0 mm
06:59 1.4 °C -6 °C 1012.4 hPa SE 5 km/h 9.7 km/h 58.1% 0.0 mm
07:04 1.2 °C -6 °C 1012.4 hPa ESE 5 km/h 9.7 km/h 59% 0.0 mm
07:09 0.8 °C -6.2 °C 1012.4 hPa SE 5.5 km/h 9.7 km/h 59.4% 0.0 mm
07:14 0.7 °C -6 °C 1012.4 hPa SE 5.8 km/h 9.7 km/h 60.7% 0.0 mm
07:19 0.7 °C -5.9 °C 1012.4 hPa Sur 5.1 km/h 8 km/h 61% 0.0 mm
07:24 0.8 °C -5.9 °C 1012.5 hPa SSE 4.7 km/h 10 km/h 61% 0.0 mm
07:29 0.9 °C -5.8 °C 1012.5 hPa SSE 5.3 km/h 9.7 km/h 61% 0.0 mm
07:34 1 °C -5.7 °C 1012.5 hPa SSE 5.8 km/h 9.7 km/h 60.8% 0.0 mm
07:39 1.2 °C -5.7 °C 1012.6 hPa SSE 5.8 km/h 8 km/h 60% 0.0 mm
07:44 1.2 °C -5.7 °C 1012.6 hPa SSE 5.8 km/h 8 km/h 60% 0.0 mm
07:49 1.2 °C -5.7 °C 1012.6 hPa SE 5.8 km/h 11.1 km/h 60% 0.0 mm
07:54 1.2 °C -5.8 °C 1012.8 hPa SE 5.8 km/h 13 km/h 60% 0.0 mm
07:59 0.8 °C -6 °C 1012.8 hPa SSE 6.9 km/h 13 km/h 60.4% 0.0 mm
08:04 0.7 °C -5.9 °C 1012.8 hPa SSE 9.5 km/h 12.9 km/h 61.2% 0.0 mm
08:09 0.6 °C -5.8 °C 1012.8 hPa SSE 7.7 km/h 11.9 km/h 62% 0.0 mm
08:14 0.6 °C -5.9 °C 1012.6 hPa SSE 7.6 km/h 13.7 km/h 62% 0.0 mm
08:19 0.6 °C -5.8 °C 1012.6 hPa SSE 8.1 km/h 14.5 km/h 62% 0.0 mm
08:24 0.7 °C -5.8 °C 1012.6 hPa SSE 8.4 km/h 14.5 km/h 62% 0.0 mm
08:29 0.8 °C -5.7 °C 1012.6 hPa Sur 7.8 km/h 11.3 km/h 62% 0.0 mm
08:34 0.9 °C -5.6 °C 1012.6 hPa Sur 7.6 km/h 9.7 km/h 62% 0.0 mm
08:39 1.1 °C -5.4 °C 1012.7 hPa Sur 5.8 km/h 9.7 km/h 62% 0.0 mm
08:44 1.2 °C -5.3 °C 1012.7 hPa Sur 4.7 km/h 9.7 km/h 61.8% 0.0 mm
08:49 1.4 °C -5.4 °C 1012.7 hPa Sur 4.9 km/h 8 km/h 61% 0.0 mm
08:54 1.6 °C -5.1 °C 1012.8 hPa Sur 5 km/h 8 km/h 61% 0.0 mm
08:59 1.8 °C -5 °C 1012.8 hPa SSE 4.8 km/h 9.3 km/h 60.7% 0.0 mm
09:04 2 °C -5 °C 1012.8 hPa SSE 4.6 km/h 13 km/h 59.8% 0.0 mm
09:09 2.2 °C -5 °C 1012.9 hPa SSE 6.4 km/h 12.9 km/h 59% 0.0 mm
09:14 2.3 °C -5 °C 1012.9 hPa SSE 7.6 km/h 11.3 km/h 58.4% 0.0 mm
09:19 2.4 °C -5 °C 1012.9 hPa Sur 7.6 km/h 11.3 km/h 58% 0.0 mm
09:24 2.6 °C -5 °C 1013.0 hPa Sur 7.6 km/h 11.3 km/h 57.2% 0.0 mm
09:29 2.7 °C -5 °C 1013.0 hPa SSE 7.2 km/h 11.3 km/h 56.8% 0.0 mm
09:34 2.8 °C -5.1 °C 1013.0 hPa SE 6.9 km/h 11.3 km/h 56% 0.0 mm
09:39 2.9 °C -5.1 °C 1013.0 hPa SSE 6.9 km/h 11.1 km/h 56% 0.0 mm
09:44 3 °C -5 °C 1013.0 hPa SSE 6.9 km/h 11.3 km/h 56% 0.0 mm
09:49 3.2 °C -4.7 °C 1013.0 hPa SSE 6.6 km/h 11.3 km/h 56% 0.0 mm
09:54 3.5 °C -4.5 °C 1013.0 hPa SSE 6.5 km/h 8 km/h 55.6% 0.0 mm
09:59 3.9 °C -4.5 °C 1012.9 hPa SE 4.8 km/h 8 km/h 54.3% 0.0 mm
10:04 4.3 °C -4.4 °C 1012.9 hPa SSE 3.9 km/h 9.3 km/h 53.3% 0.0 mm
10:09 4.6 °C -4.2 °C 1012.9 hPa SE 4.4 km/h 9.7 km/h 53% 0.0 mm
10:14 5 °C -3.9 °C 1012.9 hPa SE 4.7 km/h 6.4 km/h 52.7% 0.0 mm
10:19 5.5 °C -3.7 °C 1012.9 hPa ESE 3.6 km/h 5 km/h 51.8% 0.0 mm
10:24 6.1 °C -3.6 °C 1012.9 hPa ESE 2.9 km/h 7.4 km/h 49.9% 0.0 mm
10:29 6.5 °C -3.5 °C 1012.9 hPa ESE 3.1 km/h 7.4 km/h 48.9% 0.0 mm
10:34 6.9 °C -3.4 °C 1012.9 hPa ESE 3.2 km/h 7.4 km/h 48% 0.0 mm
10:36 7.1 °C -3.4 °C 1012.9 hPa ESE 3.2 km/h 7.4 km/h 47.2% 0.0 mm
10:44 7.2 °C -3.4 °C 1012.9 hPa SE 3.9 km/h 8 km/h 47% 0.0 mm
10:49 7.3 °C -3.1 °C 1012.9 hPa SE 3.9 km/h 8 km/h 47.8% 0.0 mm
10:54 7.7 °C -3 °C 1013.0 hPa ESE 3.9 km/h 8 km/h 46.9% 0.0 mm
10:59 8.1 °C -2.9 °C 1013.0 hPa ESE 4.4 km/h 8 km/h 46% 0.0 mm
11:04 8.4 °C -2.7 °C 1013.0 hPa ESE 4.7 km/h 8 km/h 45.5% 0.0 mm
11:09 8.8 °C -2.6 °C 1013.0 hPa SE 4.9 km/h 8.4 km/h 44.7% 0.0 mm
11:14 9.2 °C -2.5 °C 1012.8 hPa Sur 5 km/h 8 km/h 43.9% 0.0 mm
11:19 9.5 °C -2.4 °C 1012.8 hPa SSO 4.3 km/h 9.5 km/h 43.2% 0.0 mm
11:24 9.8 °C -2.4 °C 1012.8 hPa SSO 3.9 km/h 9.7 km/h 42.4% 0.0 mm
11:29 10.1 °C -2.5 °C 1012.6 hPa SSO 4.3 km/h 13.7 km/h 41.4% 0.0 mm
11:34 9.9 °C -2.8 °C 1012.6 hPa OSO 4.7 km/h 14.5 km/h 41% 0.0 mm
11:39 9.8 °C -2.8 °C 1012.6 hPa SSO 5.8 km/h 11.1 km/h 41% 0.0 mm
11:44 9.8 °C -2.8 °C 1012.4 hPa Sur 6.5 km/h 11.3 km/h 41% 0.0 mm
11:49 10.1 °C -2.6 °C 1012.4 hPa Sur 6.1 km/h 11.9 km/h 40.9% 0.0 mm
11:54 10.2 °C -2.7 °C 1012.4 hPa SSO 5.8 km/h 11.3 km/h 40.4% 0.0 mm
11:59 10.2 °C -2.7 °C 1012.0 hPa SSO 5.3 km/h 9.7 km/h 40.5% 0.0 mm
12:04 10.4 °C -2.6 °C 1012.0 hPa SSE 5 km/h 8 km/h 40.4% 0.0 mm
12:09 10.7 °C -2.5 °C 1012.0 hPa SE 4.3 km/h 13.7 km/h 39.7% 0.0 mm
12:14 10.8 °C -2.6 °C 1011.8 hPa SSE 3.9 km/h 14.5 km/h 39% 0.0 mm
12:19 10.9 °C -2.5 °C 1011.8 hPa SSE 5.8 km/h 12.9 km/h 39% 0.0 mm
12:24 11.2 °C -2.4 °C 1011.8 hPa Sur 6.9 km/h 9.5 km/h 38.4% 0.0 mm
12:29 11.4 °C -2.6 °C 1011.6 hPa Sur 6.3 km/h 14.8 km/h 37.7% 0.0 mm
12:34 11.5 °C -2.6 °C 1011.6 hPa Sur 5.8 km/h 16.4 km/h 37.3% 0.0 mm
12:39 11.6 °C -2.3 °C 1011.6 hPa Sur 7.6 km/h 16.1 km/h 38% 0.0 mm
12:44 11.8 °C -2.4 °C 1011.3 hPa SSO 8.7 km/h 13.7 km/h 37.1% 0.0 mm
12:49 11.8 °C -2.6 °C 1011.3 hPa SO 7.3 km/h 14.5 km/h 36.7% 0.0 mm
12:54 11.8 °C -2.6 °C 1011.3 hPa SSO 6.5 km/h 13 km/h 36.5% 0.0 mm
12:59 11.9 °C -2.7 °C 1011.0 hPa SSO 6.8 km/h 13 km/h 36% 0.0 mm
13:04 12.1 °C -2.6 °C 1011.0 hPa SSO 6.9 km/h 17.2 km/h 35.8% 0.0 mm
13:09 12.2 °C -2.8 °C 1011.0 hPa SSO 7.3 km/h 17.7 km/h 35% 0.0 mm
13:14 12.2 °C -3 °C 1010.6 hPa SO 7.6 km/h 16.1 km/h 34.6% 0.0 mm
13:19 12.2 °C -3.1 °C 1010.6 hPa SE 7.2 km/h 14.5 km/h 34.4% 0.0 mm
13:24 12.4 °C -3 °C 1010.6 hPa Este 6.9 km/h 9.7 km/h 34% 0.0 mm
13:29 12.6 °C -3.2 °C 1010.2 hPa SSE 5.5 km/h 17.2 km/h 33.1% 0.0 mm
13:34 12.7 °C -3.2 °C 1010.2 hPa SE 4.7 km/h 17.7 km/h 33% 0.0 mm
13:39 12.7 °C -3.1 °C 1010.2 hPa ENE 7.1 km/h 16.1 km/h 33% 0.0 mm
13:44 12.8 °C -3.1 °C 1010.1 hPa Este 8.7 km/h 9.7 km/h 33% 0.0 mm
13:49 13.2 °C -3.1 °C 1010.1 hPa ENE 5.2 km/h 7.4 km/h 32.3% 0.0 mm
13:54 13.3 °C -3.1 °C 1010.1 hPa NNO 3.2 km/h 8 km/h 32% 0.0 mm
13:59 13.4 °C -3 °C 1009.8 hPa ESE 3.6 km/h 9.5 km/h 32% 0.0 mm
14:04 13.4 °C -3 °C 1009.8 hPa NNE 3.9 km/h 9.7 km/h 32% 0.0 mm
14:09 13.4 °C -3 °C 1009.8 hPa NE 3.9 km/h 8 km/h 32% 0.0 mm
14:14 13.5 °C -3 °C 1009.5 hPa Oeste 3.9 km/h 13 km/h 31.8% 0.0 mm
14:19 13.5 °C -2.9 °C 1009.5 hPa SO 4.6 km/h 15.6 km/h 32% 0.0 mm
14:24 13.5 °C -2.9 °C 1009.5 hPa Oeste 5 km/h 16.7 km/h 32% 0.0 mm
14:29 13.4 °C -3 °C 1009.3 hPa OSO 6.5 km/h 16.1 km/h 32% 0.0 mm
14:34 13.6 °C -2.8 °C 1009.3 hPa ESE 7.6 km/h 8.4 km/h 31.9% 0.0 mm
14:39 13.8 °C -3 °C 1009.3 hPa North 4.9 km/h 8.4 km/h 31.2% 0.0 mm
14:44 13.9 °C -3 °C 1009.1 hPa ONO 3.2 km/h 8 km/h 31% 0.0 mm
14:49 14 °C -2.8 °C 1009.1 hPa ENE 3.6 km/h 9.5 km/h 31% 0.0 mm
14:54 14.2 °C -2.7 °C 1009.1 hPa ONO 3.9 km/h 25.9 km/h 31.2% 0.0 mm
14:59 14 °C -2.5 °C 1008.9 hPa ONO 7.8 km/h 25.7 km/h 31.8% 0.0 mm
15:04 14 °C -2.4 °C 1008.9 hPa ONO 10 km/h 20.9 km/h 32% 0.0 mm
15:09 14.2 °C -2.3 °C 1008.9 hPa Oeste 8.4 km/h 17.7 km/h 31.9% 0.0 mm
15:14 14.2 °C -2.3 °C 1008.9 hPa Oeste 7.6 km/h 17.2 km/h 32% 0.0 mm
15:19 14.1 °C -2.4 °C 1008.9 hPa ONO 8.1 km/h 20.1 km/h 32% 0.0 mm
15:24 14 °C -2.2 °C 1009.0 hPa ONO 8.4 km/h 20.9 km/h 32.7% 0.0 mm
15:29 13.9 °C -1.9 °C 1009.0 hPa NO 7.9 km/h 18.5 km/h 33.4% 0.0 mm
15:34 13.7 °C -1.8 °C 1009.0 hPa NO 7.6 km/h 19 km/h 34.4% 0.0 mm
15:39 13.4 °C -1.7 °C 1009.0 hPa NO 10.2 km/h 22.5 km/h 35.2% 0.0 mm
15:44 13.2 °C -1.6 °C 1009.0 hPa NO 11.9 km/h 22.5 km/h 36% 0.0 mm
15:49 13.1 °C -1.7 °C 1009.0 hPa NO 10.9 km/h 19.3 km/h 36% 0.0 mm
15:54 12.9 °C -1.8 °C 1009.2 hPa NO 10.3 km/h 19.3 km/h 36% 0.0 mm
15:59 12.9 °C -1.8 °C 1009.2 hPa NO 10.1 km/h 17.7 km/h 36% 0.0 mm
16:04 13 °C -1.8 °C 1009.2 hPa NO 10 km/h 17.2 km/h 36% 0.0 mm
16:09 13.1 °C -1.9 °C 1009.2 hPa NO 10 km/h 22.2 km/h 35.4% 0.0 mm
16:14 13.1 °C -2.1 °C 1009.1 hPa Oeste 10 km/h 20.1 km/h 35% 0.0 mm
16:19 13 °C -2.1 °C 1009.1 hPa ONO 11.6 km/h 20.4 km/h 35% 0.0 mm
16:24 13 °C -1.9 °C 1009.2 hPa ONO 13 km/h 20.9 km/h 35.7% 0.0 mm
16:29 13.1 °C -1.7 °C 1009.2 hPa ONO 11.4 km/h 16.1 km/h 35.9% 0.0 mm
16:34 13.1 °C -2 °C 1009.2 hPa Oeste 10 km/h 17.2 km/h 35.2% 0.0 mm
16:39 13.1 °C -1.9 °C 1009.2 hPa ONO 9.7 km/h 17.7 km/h 35.5% 0.0 mm
16:44 13.1 °C -1.7 °C 1009.1 hPa ONO 9.5 km/h 13 km/h 36% 0.0 mm
16:49 13.1 °C -1.7 °C 1009.1 hPa ONO 8.4 km/h 13.7 km/h 36% 0.0 mm
16:54 12.9 °C -1.6 °C 1009.1 hPa ONO 7.6 km/h 14.5 km/h 36.4% 0.0 mm
16:59 12.8 °C -1.5 °C 1009.1 hPa ONO 6.8 km/h 11.3 km/h 37% 0.0 mm
17:04 12.7 °C -1.4 °C 1009.1 hPa ONO 6.5 km/h 11.3 km/h 37.5% 0.0 mm
17:09 12.6 °C -1.4 °C 1009.3 hPa NO 5.6 km/h 9.7 km/h 38% 0.0 mm
17:14 12.4 °C -1.3 °C 1009.3 hPa NO 5 km/h 9.7 km/h 38.5% 0.0 mm
17:19 12.4 °C -1.2 °C 1009.3 hPa NNO 3.9 km/h 8 km/h 39% 0.0 mm
17:24 12.3 °C -1.3 °C 1009.4 hPa Este 3.2 km/h 9.3 km/h 39% 0.0 mm
17:29 12.3 °C -1.3 °C 1009.4 hPa Este 4.1 km/h 9.7 km/h 39% 0.0 mm
17:33 12.3 °C -1.3 °C 1009.4 hPa Este 4.6 km/h 9.7 km/h 39% 0.0 mm
17:39 12.3 °C -1.2 °C 1009.4 hPa NE 5.3 km/h 13 km/h 39% 0.0 mm
17:44 12.3 °C -1.2 °C 1009.4 hPa ONO 5.8 km/h 12.9 km/h 39.1% 0.0 mm
17:49 12.3 °C -0.9 °C 1009.4 hPa NO 4.9 km/h 8 km/h 40% 0.0 mm
17:54 12.2 °C -1 °C 1009.4 hPa NO 4.7 km/h 5.6 km/h 40% 0.0 mm
17:59 12.2 °C -0.9 °C 1009.4 hPa NO 4.1 km/h 11.1 km/h 40.4% 0.0 mm
18:04 12 °C -0.9 °C 1009.4 hPa ONO 3.9 km/h 14.8 km/h 41% 0.0 mm
18:09 11.8 °C -0.9 °C 1009.4 hPa ONO 6.3 km/h 14.5 km/h 41.4% 0.0 mm
18:14 11.7 °C -0.8 °C 1009.4 hPa ONO 7.6 km/h 9.3 km/h 42% 0.0 mm
18:19 11.7 °C -0.8 °C 1009.4 hPa NO 7.1 km/h 10 km/h 42% 0.0 mm
18:24 11.6 °C -0.9 °C 1009.5 hPa ONO 6.5 km/h 11.9 km/h 42% 0.0 mm
18:29 11.6 °C -0.9 °C 1009.5 hPa ONO 6.5 km/h 11.3 km/h 42% 0.0 mm
18:34 11.6 °C -0.9 °C 1009.5 hPa ONO 6.5 km/h 17.2 km/h 42% 0.0 mm
18:39 11.6 °C -0.9 °C 1009.7 hPa ONO 7.7 km/h 17.7 km/h 42% 0.0 mm
18:44 11.6 °C -0.9 °C 1009.7 hPa ONO 8.4 km/h 16.1 km/h 42% 0.0 mm
18:49 11.5 °C -0.9 °C 1009.7 hPa NO 7.4 km/h 11.3 km/h 42.4% 0.0 mm
18:54 11.3 °C -0.8 °C 1009.9 hPa NO 6.5 km/h 11.1 km/h 43% 0.0 mm
18:59 11.3 °C -0.9 °C 1009.9 hPa NO 5.5 km/h 11.3 km/h 43% 0.0 mm
19:04 11.2 °C -0.7 °C 1009.9 hPa NNO 5 km/h 8 km/h 43.9% 0.0 mm
19:09 11.1 °C -0.7 °C 1010.1 hPa North 3.9 km/h 8 km/h 44% 0.0 mm
19:14 11 °C -0.8 °C 1010.1 hPa NNE 3.2 km/h 5.8 km/h 44% 0.0 mm
19:19 11 °C -0.8 °C 1010.1 hPa ENE 3.2 km/h 6.4 km/h 44% 0.0 mm
19:24 10.9 °C -0.7 °C 1010.2 hPa ENE 3.2 km/h 5.8 km/h 44.7% 0.0 mm
19:29 10.9 °C -0.6 °C 1010.2 hPa ENE 3.2 km/h 6.4 km/h 45% 0.0 mm
19:34 10.8 °C -0.6 °C 1010.2 hPa ENE 3.2 km/h 5.8 km/h 45.4% 0.0 mm
19:39 10.7 °C -0.4 °C 1010.3 hPa ENE 3.1 km/h 6.4 km/h 46% 0.0 mm
19:44 10.7 °C -0.4 °C 1010.3 hPa ENE 2.9 km/h 4.7 km/h 46% 0.0 mm
19:49 10.7 °C -0.4 °C 1010.3 hPa ENE 0.7 km/h 5 km/h 46% 0.0 mm
19:54 10.7 °C -0.5 °C 1010.4 hPa Calm   7.4 km/h 46% 0.0 mm
19:59 10.7 °C -0.5 °C 1010.4 hPa ESE 1.9 km/h 8 km/h 46% 0.0 mm
20:04 10.6 °C -0.6 °C 1010.4 hPa ESE 2.9 km/h 7.4 km/h 46% 0.0 mm
20:09 10.6 °C -0.5 °C 1010.5 hPa SSE 2.9 km/h 11.1 km/h 46.2% 0.0 mm
20:14 10.6 °C -0.6 °C 1010.5 hPa Oeste 2.9 km/h 13.7 km/h 46% 0.0 mm
20:19 10.7 °C -0.5 °C 1010.5 hPa Oeste 5.2 km/h 14.5 km/h 45.8% 0.0 mm
20:24 10.7 °C -0.7 °C 1010.5 hPa Oeste 6.5 km/h 11.9 km/h 45% 0.0 mm
20:29 10.8 °C -0.7 °C 1010.5 hPa ONO 6.7 km/h 16.7 km/h 45% 0.0 mm
20:34 10.8 °C -0.7 °C 1010.5 hPa Oeste 6.9 km/h 16.1 km/h 45% 0.0 mm
20:39 10.7 °C -0.8 °C 1010.5 hPa Oeste 7.8 km/h 14.8 km/h 45% 0.0 mm
20:44 10.7 °C -0.5 °C 1010.5 hPa ONO 8.4 km/h 14.5 km/h 45.9% 0.0 mm
20:49 10.6 °C -0.5 °C 1010.5 hPa ONO 7.2 km/h 11.3 km/h 46% 0.0 mm
20:54 10.4 °C -0.7 °C 1010.5 hPa ONO 6.5 km/h 13 km/h 46% 0.0 mm
20:59 10.3 °C -0.6 °C 1010.5 hPa ONO 5.5 km/h 12.9 km/h 46.8% 0.0 mm
21:04 10.2 °C -0.7 °C 1010.5 hPa ONO 5 km/h 11.1 km/h 47% 0.0 mm
21:09 10 °C -0.7 °C 1010.6 hPa ONO 5 km/h 11.3 km/h 47.4% 0.0 mm
21:14 9.8 °C -0.7 °C 1010.6 hPa OSO 5 km/h 11.9 km/h 48% 0.0 mm
21:19 9.8 °C -0.7 °C 1010.6 hPa SO 4.7 km/h 11.3 km/h 48% 0.0 mm
21:24 9.7 °C -0.7 °C 1010.7 hPa SSO 4.6 km/h 8 km/h 48.4% 0.0 mm
21:29 9.7 °C -0.6 °C 1010.7 hPa Sur 4.2 km/h 8 km/h 49% 0.0 mm
21:34 9.6 °C -0.6 °C 1010.7 hPa SO 3.9 km/h 5.6 km/h 49% 0.0 mm
21:39 9.4 °C -0.8 °C 1010.7 hPa SO 3.3 km/h 5.6 km/h 49% 0.0 mm
21:44 9.3 °C -0.7 °C 1010.7 hPa SO 2.9 km/h 5.6 km/h 49.6% 0.0 mm
21:49 9.3 °C -0.6 °C 1010.7 hPa SO 2.9 km/h 5.6 km/h 50% 0.0 mm
21:54 9.2 °C -0.7 °C 1010.8 hPa Sur 2.9 km/h 7.4 km/h 50% 0.0 mm
21:59 9.2 °C -0.7 °C 1010.8 hPa Sur 3.9 km/h 8 km/h 50% 0.0 mm
22:04 9.2 °C -0.7 °C 1010.8 hPa Oeste 4.7 km/h 8 km/h 50% 0.0 mm
22:09 9.2 °C -0.7 °C 1010.8 hPa NNE 3.7 km/h 5.6 km/h 50% 0.0 mm
22:14 9.2 °C -0.5 °C 1010.8 hPa NNE 3.2 km/h 6.4 km/h 50.7% 0.0 mm
22:19 9.1 °C -0.5 °C 1010.8 hPa NNE 3 km/h 7.6 km/h 51% 0.0 mm
22:24 9.1 °C -0.5 °C 1010.9 hPa North 2.9 km/h 8 km/h 51% 0.0 mm
22:29 9.1 °C -0.5 °C 1010.9 hPa ENE 3.5 km/h 8 km/h 51% 0.0 mm
22:34 9 °C -0.6 °C 1010.9 hPa ENE 3.9 km/h 8 km/h 51% 0.0 mm
22:39 9 °C -0.7 °C 1010.9 hPa SSE 3.3 km/h 10.3 km/h 51% 0.0 mm
22:44 9 °C -0.6 °C 1010.8 hPa OSO 2.9 km/h 11.9 km/h 51% 0.0 mm
22:49 9 °C -0.6 °C 1010.8 hPa SO 4 km/h 11.3 km/h 51% 0.0 mm
22:54 9 °C -0.6 °C 1010.9 hPa SSO 4.7 km/h 8.4 km/h 51% 0.0 mm
22:59 9.1 °C -0.5 °C 1010.9 hPa SSO 4.8 km/h 11.1 km/h 51% 0.0 mm
23:04 9.1 °C -0.6 °C 1010.9 hPa Sur 5 km/h 16.7 km/h 50.7% 0.0 mm
23:09 9.1 °C -0.6 °C 1011.1 hPa Sur 6.6 km/h 16.1 km/h 50.7% 0.0 mm
23:14 9.1 °C -0.5 °C 1011.1 hPa Sur 7.6 km/h 9.7 km/h 51% 0.0 mm
23:19 9 °C -0.6 °C 1011.1 hPa SSO 6.9 km/h 10 km/h 51% 0.0 mm
23:24 8.9 °C -0.7 °C 1011.1 hPa OSO 6.5 km/h 9.7 km/h 51% 0.0 mm
23:29 8.9 °C -0.7 °C 1010.9 hPa OSO 5.6 km/h 8.4 km/h 51% 0.0 mm
23:34 8.7 °C -0.8 °C 1010.9 hPa OSO 5 km/h 8 km/h 51% 0.0 mm
23:39 8.5 °C -0.8 °C 1011.0 hPa SSO 4.7 km/h 11.1 km/h 51.9% 0.0 mm
23:44 8.4 °C -0.9 °C 1011.0 hPa SSO 4.6 km/h 14.8 km/h 52% 0.0 mm
23:49 8.4 °C -0.9 °C 1011.0 hPa SSO 7.3 km/h 14.5 km/h 52% 0.0 mm
23:54 8.5 °C -0.8 °C 1011.1 hPa SSO 8.7 km/h 12.9 km/h 52% 0.0 mm
23:59 8.5 °C -0.8 °C 1011.1 hPa SSO 8.5 km/h 11.3 km/h 52% 0.0 mm
Murcia-Puente Tocinos, Espa?a
Compliments of Weather Underground - 3 mb

La estación de MeteoMurcia.com, publica sus datos en los siguientes proyectos:

Weather Underground PWS IMURCIAP2 Meteoclimatic www.awekas.at

W3Counter
Web Analytics